Time;durP1;ratioP1;P1;durP2;ratioP2;P2;SDS_P1;SDS_P2;PMS_P1;PMS_P2;Temp;Humidity;BMP_temperature;BMP_pressure;BME280_temperature;BME280_humidity;BME280_pressure;Samples;Min_cycle;Max_cycle;Signal;HPM_P1;HPM_P2
2021/12/19 00:01:33;;;;;;;11.93;7.07;;;;;;;;;;4973113;28;20054;-75
2021/12/19 00:09:29;;;;;;;13.32;6.97;;;;;;;;;;4978686;28;20035;-73
2021/12/19 00:11:58;;;;;;;16.92;7.47;;;;;;;;;;4974485;28;20046;-73
2021/12/19 00:14:28;;;;;;;11.73;6.70;;;;;;;;;;4973946;28;20043;-73
2021/12/19 00:16:54;;;;;;;12.05;6.65;;;;;;;;;;4974754;28;20043;-74
2021/12/19 00:19:20;;;;;;;11.82;6.15;;;;;;;;;;4975572;28;20505;-73
2021/12/19 00:21:47;;;;;;;11.88;6.45;;;;;;;;;;4975038;28;20053;-73
2021/12/19 00:24:13;;;;;;;10.82;6.60;;;;;;;;;;4975218;28;20043;-73
2021/12/19 00:26:39;;;;;;;13.07;6.93;;;;;;;;;;4974748;28;20034;-73
2021/12/19 00:29:06;;;;;;;11.85;6.72;;;;;;;;;;4974015;28;20504;-73
2021/12/19 00:31:32;;;;;;;10.48;6.15;;;;;;;;;;4974140;28;20053;-73
2021/12/19 00:33:59;;;;;;;10.15;6.20;;;;;;;;;;4973299;28;20577;-73
2021/12/19 00:36:25;;;;;;;10.57;6.30;;;;;;;;;;4974592;28;20043;-73
2021/12/19 00:38:52;;;;;;;9.32;5.25;;;;;;;;;;4973629;28;20035;-73
2021/12/19 00:41:18;;;;;;;8.82;5.72;;;;;;;;;;4974548;28;20045;-73
2021/12/19 00:44:07;;;;;;;9.13;5.53;;;;;;;;;;4974035;28;20058;-73
2021/12/19 00:46:43;;;;;;;8.85;5.35;;;;;;;;;;4974814;28;20046;-73
2021/12/19 00:49:09;;;;;;;9.20;5.50;;;;;;;;;;4975043;28;20046;-73
2021/12/19 00:51:35;;;;;;;8.98;5.90;;;;;;;;;;4974672;28;20046;-73
2021/12/19 00:54:04;;;;;;;9.98;5.72;;;;;;;;;;4973896;28;20077;-73
2021/12/19 00:56:30;;;;;;;8.90;5.63;;;;;;;;;;4973994;28;20046;-73
2021/12/19 00:58:56;;;;;;;9.50;5.43;;;;;;;;;;4975058;28;20068;-73
2021/12/19 01:01:22;;;;;;;9.55;5.60;;;;;;;;;;4973037;28;20038;-73
2021/12/19 01:03:48;;;;;;;10.73;5.80;;;;;;;;;;4974137;28;20394;-73
2021/12/19 01:06:17;;;;;;;9.23;5.50;;;;;;;;;;4974284;28;20117;-73
2021/12/19 01:08:43;;;;;;;9.90;5.53;;;;;;;;;;4974591;28;20039;-74
2021/12/19 01:11:09;;;;;;;9.32;5.53;;;;;;;;;;4973314;28;20508;-73
2021/12/19 01:13:35;;;;;;;8.35;4.88;;;;;;;;;;4974375;28;20054;-73
2021/12/19 01:16:02;;;;;;;8.70;5.07;;;;;;;;;;4973730;28;20050;-73
2021/12/19 01:18:28;;;;;;;7.80;4.80;;;;;;;;;;5005344;28;20502;-73
2021/12/19 01:20:54;;;;;;;8.18;5.03;;;;;;;;;;4974829;28;20508;-72
2021/12/19 01:23:22;;;;;;;7.40;4.53;;;;;;;;;;4974129;28;20042;-73
2021/12/19 01:25:49;;;;;;;8.45;5.03;;;;;;;;;;4973715;28;20067;-73
2021/12/19 01:28:15;;;;;;;7.93;5.13;;;;;;;;;;4972481;28;20043;-73
2021/12/19 01:30:41;;;;;;;7.40;4.70;;;;;;;;;;4973596;28;20375;-73
2021/12/19 01:33:07;;;;;;;8.50;4.93;;;;;;;;;;4972788;28;20074;-73
2021/12/19 01:35:33;;;;;;;10.68;5.50;;;;;;;;;;4954816;28;20046;-72
2021/12/19 01:37:59;;;;;;;9.40;5.68;;;;;;;;;;4972113;28;20477;-73
2021/12/19 01:40:25;;;;;;;7.97;4.97;;;;;;;;;;4972788;28;20051;-73
2021/12/19 01:42:54;;;;;;;9.63;5.10;;;;;;;;;;4972796;28;20046;-73
2021/12/19 01:45:33;;;;;;;8.27;5.18;;;;;;;;;;4973117;28;20131;-73
2021/12/19 01:48:03;;;;;;;7.88;5.00;;;;;;;;;;4972976;28;20039;-73
2021/12/19 01:50:31;;;;;;;8.13;5.00;;;;;;;;;;4972482;28;20447;-73
2021/12/19 01:52:58;;;;;;;9.27;4.93;;;;;;;;;;4971244;28;20053;-73
2021/12/19 01:55:24;;;;;;;8.85;5.25;;;;;;;;;;4971809;28;20054;-73
2021/12/19 01:57:50;;;;;;;8.52;5.03;;;;;;;;;;4971655;28;20042;-73
2021/12/19 02:00:25;;;;;;;7.75;5.13;;;;;;;;;;4971229;28;20384;-73
2021/12/19 02:02:51;;;;;;;8.27;5.18;;;;;;;;;;4971595;28;20026;-73
2021/12/19 02:05:17;;;;;;;8.70;5.03;;;;;;;;;;4971481;28;20046;-73
2021/12/19 02:07:46;;;;;;;9.65;5.78;;;;;;;;;;4971905;28;20047;-73
2021/12/19 02:10:17;;;;;;;9.75;5.80;;;;;;;;;;4970219;28;20405;-73
2021/12/19 02:12:44;;;;;;;8.77;5.80;;;;;;;;;;4971332;28;20051;-73
2021/12/19 02:15:11;;;;;;;8.05;5.10;;;;;;;;;;4972116;28;20478;-73
2021/12/19 02:17:37;;;;;;;9.05;5.18;;;;;;;;;;4971097;28;20515;-73
2021/12/19 02:20:08;;;;;;;8.77;5.18;;;;;;;;;;4971711;28;20041;-72
2021/12/19 02:22:34;;;;;;;8.53;5.10;;;;;;;;;;4971218;28;20054;-72
2021/12/19 02:24:59;;;;;;;7.80;4.40;;;;;;;;;;4971492;28;20486;-72
2021/12/19 02:27:28;;;;;;;7.97;4.95;;;;;;;;;;4971146;28;20030;-72
2021/12/19 02:29:56;;;;;;;8.25;5.20;;;;;;;;;;4971090;28;20042;-73
2021/12/19 02:32:23;;;;;;;7.45;4.57;;;;;;;;;;4970571;28;20038;-72
2021/12/19 02:34:52;;;;;;;9.02;5.30;;;;;;;;;;4971746;28;20489;-72
2021/12/19 02:37:56;;;;;;;7.78;4.85;;;;;;;;;;4971083;28;20050;-72
2021/12/19 02:48:29;;;;;;;7.10;4.30;;;;;;;;;;4972769;28;20039;-74
2021/12/19 02:50:56;;;;;;;8.48;4.97;;;;;;;;;;4970662;28;20042;-74
2021/12/19 02:53:34;;;;;;;9.07;5.10;;;;;;;;;;4969096;28;20043;-74
2021/12/19 02:56:05;;;;;;;8.07;5.20;;;;;;;;;;4971371;28;20477;-73
2021/12/19 02:58:31;;;;;;;9.13;4.60;;;;;;;;;;4971192;28;20482;-74
2021/12/19 03:00:59;;;;;;;8.77;4.95;;;;;;;;;;4971412;28;20458;-74
2021/12/19 03:03:25;;;;;;;7.90;4.93;;;;;;;;;;4969169;28;20034;-74
2021/12/19 03:05:51;;;;;;;7.60;4.88;;;;;;;;;;4971388;28;20482;-73
2021/12/19 03:08:18;;;;;;;8.07;4.78;;;;;;;;;;4964258;28;20945;-74
2021/12/19 03:18:42;;;;;;;8.05;4.63;;;;;;;;;;4975078;28;20030;-72
2021/12/19 03:21:11;;;;;;;8.65;5.50;;;;;;;;;;4970980;28;20510;-74
2021/12/19 03:23:38;;;;;;;8.80;5.60;;;;;;;;;;4970367;28;20053;-72
2021/12/19 03:26:05;;;;;;;9.60;5.60;;;;;;;;;;4970858;28;20049;-73
2021/12/19 03:28:31;;;;;;;10.48;6.00;;;;;;;;;;4969860;28;20150;-72
2021/12/19 03:30:57;;;;;;;9.65;5.80;;;;;;;;;;4970510;28;20374;-73
2021/12/19 03:33:23;;;;;;;9.00;5.50;;;;;;;;;;4970316;28;20075;-72
2021/12/19 03:35:49;;;;;;;10.23;6.10;;;;;;;;;;4970937;28;20038;-73
2021/12/19 03:38:16;;;;;;;9.43;5.60;;;;;;;;;;4971042;28;20409;-72
2021/12/19 03:40:51;;;;;;;8.93;5.38;;;;;;;;;;4970898;28;20039;-72
2021/12/19 03:43:20;;;;;;;9.15;6.10;;;;;;;;;;4970662;28;20070;-73
2021/12/19 03:45:47;;;;;;;10.40;6.18;;;;;;;;;;4981476;28;20026;-72
2021/12/19 03:48:15;;;;;;;9.95;6.13;;;;;;;;;;4990351;28;20495;-72
2021/12/19 03:50:45;;;;;;;11.05;6.00;;;;;;;;;;4989884;28;20034;-72
2021/12/19 03:53:16;;;;;;;10.55;6.35;;;;;;;;;;4989541;28;20049;-73
2021/12/19 03:55:42;;;;;;;12.57;6.93;;;;;;;;;;4979821;28;20031;-73
2021/12/19 03:58:09;;;;;;;10.30;6.50;;;;;;;;;;4970907;28;20034;-72
2021/12/19 04:00:35;;;;;;;11.15;6.93;;;;;;;;;;4970604;28;20413;-72
2021/12/19 04:03:04;;;;;;;12.52;7.40;;;;;;;;;;4971026;28;20050;-73
2021/12/19 04:05:31;;;;;;;11.95;7.35;;;;;;;;;;4972816;28;20061;-72
2021/12/19 04:07:58;;;;;;;12.38;8.13;;;;;;;;;;4973522;28;20038;-72
2021/12/19 04:10:27;;;;;;;12.85;7.32;;;;;;;;;;4973666;28;20186;-72
2021/12/19 04:12:54;;;;;;;12.38;7.43;;;;;;;;;;4973157;28;20042;-72
2021/12/19 04:15:23;;;;;;;12.73;7.47;;;;;;;;;;4973674;28;20046;-72
2021/12/19 04:17:50;;;;;;;11.23;7.20;;;;;;;;;;4973844;28;20061;-72
2021/12/19 04:20:18;;;;;;;12.65;7.63;;;;;;;;;;4973596;28;20035;-72
2021/12/19 04:22:45;;;;;;;13.77;7.70;;;;;;;;;;4973448;28;20031;-72
2021/12/19 04:25:12;;;;;;;11.80;7.10;;;;;;;;;;4973757;28;20046;-72
2021/12/19 04:27:38;;;;;;;10.68;6.88;;;;;;;;;;4972236;28;20043;-72
2021/12/19 04:30:05;;;;;;;12.27;6.75;;;;;;;;;;4973109;28;20042;-72
2021/12/19 04:32:37;;;;;;;12.23;7.32;;;;;;;;;;4972976;28;20057;-72
2021/12/19 04:35:04;;;;;;;13.27;6.65;;;;;;;;;;4973326;28;20047;-72
2021/12/19 04:40:24;;;;;;;12.50;7.07;;;;;;;;;;4973013;28;20035;-72
2021/12/19 04:56:31;;;;;;;13.57;8.13;;;;;;;;;;4978302;28;20118;-72
2021/12/19 04:59:34;;;;;;;15.05;8.55;;;;;;;;;;4972254;28;20039;-74
2021/12/19 05:15:32;;;;;;;12.82;7.57;;;;;;;;;;4973161;28;20039;-73
2021/12/19 05:18:02;;;;;;;13.05;7.95;;;;;;;;;;4973660;28;20043;-73
2021/12/19 05:20:29;;;;;;;13.43;7.32;;;;;;;;;;4973729;28;20043;-73
2021/12/19 05:23:04;;;;;;;14.00;7.03;;;;;;;;;;4973362;28;20489;-73
2021/12/19 05:25:30;;;;;;;14.35;7.80;;;;;;;;;;4973875;28;20039;-73
2021/12/19 05:27:58;;;;;;;11.30;6.53;;;;;;;;;;4975150;28;20039;-73
2021/12/19 05:30:25;;;;;;;11.18;5.82;;;;;;;;;;4977636;28;20046;-73
2021/12/19 05:32:53;;;;;;;13.98;7.70;;;;;;;;;;4977559;28;20047;-73
2021/12/19 05:35:48;;;;;;;11.00;6.80;;;;;;;;;;4978599;28;20398;-73
2021/12/19 05:46:21;;;;;;;13.20;6.82;;;;;;;;;;4982337;28;20031;-72
2021/12/19 05:48:47;;;;;;;13.20;7.63;;;;;;;;;;4979528;28;20482;-74
2021/12/19 05:51:13;;;;;;;12.52;7.20;;;;;;;;;;4973508;28;20077;-74
2021/12/19 05:53:39;;;;;;;12.80;7.18;;;;;;;;;;4978106;28;20066;-73
2021/12/19 05:56:05;;;;;;;12.40;7.63;;;;;;;;;;4977670;28;20042;-72
2021/12/19 05:58:31;;;;;;;13.93;7.57;;;;;;;;;;4978465;28;20101;-73
2021/12/19 06:00:57;;;;;;;16.10;8.05;;;;;;;;;;4978679;28;20489;-72
2021/12/19 06:03:23;;;;;;;13.73;8.32;;;;;;;;;;4977044;28;20066;-73
2021/12/19 06:05:49;;;;;;;14.05;8.70;;;;;;;;;;4981089;28;20102;-72
2021/12/19 06:08:15;;;;;;;14.10;8.32;;;;;;;;;;4980290;28;20101;-73
2021/12/19 06:10:41;;;;;;;15.50;8.98;;;;;;;;;;4978336;28;20070;-72
2021/12/19 06:13:07;;;;;;;14.70;8.80;;;;;;;;;;4979168;28;20226;-74
2021/12/19 06:15:35;;;;;;;14.35;8.73;;;;;;;;;;4977264;28;20033;-74
2021/12/19 06:18:01;;;;;;;15.40;8.65;;;;;;;;;;4972567;28;20536;-73
2021/12/19 06:20:31;;;;;;;16.27;8.82;;;;;;;;;;4973239;28;20521;-74
2021/12/19 06:22:58;;;;;;;15.43;9.40;;;;;;;;;;4972852;28;20043;-74
2021/12/19 06:25:24;;;;;;;15.70;9.48;;;;;;;;;;4971294;28;20043;-74
2021/12/19 06:27:50;;;;;;;14.50;8.13;;;;;;;;;;4972797;28;20039;-75
2021/12/19 06:30:16;;;;;;;16.27;9.40;;;;;;;;;;4973292;28;20035;-73
2021/12/19 06:32:42;;;;;;;15.00;8.35;;;;;;;;;;4973974;28;20058;-74
2021/12/19 06:35:17;;;;;;;15.98;8.15;;;;;;;;;;4974036;28;20039;-74
2021/12/19 06:37:48;;;;;;;14.65;8.43;;;;;;;;;;4973200;28;20559;-72
2021/12/19 06:40:20;;;;;;;16.60;8.07;;;;;;;;;;4973701;28;20051;-74
2021/12/19 06:42:47;;;;;;;15.63;8.70;;;;;;;;;;4972569;28;20031;-74
2021/12/19 06:45:13;;;;;;;14.88;8.43;;;;;;;;;;4972525;28;20034;-74
2021/12/19 06:47:39;;;;;;;16.45;8.40;;;;;;;;;;4973049;28;20039;-73
2021/12/19 06:50:07;;;;;;;16.38;8.73;;;;;;;;;;4972263;28;20047;-74
2021/12/19 06:52:34;;;;;;;15.75;9.10;;;;;;;;;;4971777;28;20039;-73
2021/12/19 06:55:00;;;;;;;17.60;9.07;;;;;;;;;;4971832;28;20047;-73
2021/12/19 06:57:28;;;;;;;15.40;8.55;;;;;;;;;;4969780;28;20496;-75
2021/12/19 06:59:54;;;;;;;16.20;9.10;;;;;;;;;;4971665;28;20035;-73
2021/12/19 07:02:20;;;;;;;17.13;9.15;;;;;;;;;;4970897;28;20482;-74
2021/12/19 07:04:46;;;;;;;17.77;9.85;;;;;;;;;;4969005;28;20520;-74
2021/12/19 07:07:12;;;;;;;16.73;9.07;;;;;;;;;;4969887;28;20035;-70
2021/12/19 07:09:39;;;;;;;16.50;8.75;;;;;;;;;;4971750;28;20043;-70
2021/12/19 07:12:07;;;;;;;16.88;9.68;;;;;;;;;;4971105;28;20050;-70
2021/12/19 07:14:33;;;;;;;19.50;8.95;;;;;;;;;;4971548;28;20051;-70
2021/12/19 07:16:59;;;;;;;20.23;10.13;;;;;;;;;;4971756;28;20053;-70
2021/12/19 07:19:25;;;;;;;19.60;9.77;;;;;;;;;;4971462;28;20030;-70
2021/12/19 07:21:51;;;;;;;17.67;9.60;;;;;;;;;;4970462;28;20055;-74
2021/12/19 07:24:17;;;;;;;18.45;9.13;;;;;;;;;;4971527;28;20051;-74
2021/12/19 07:26:42;;;;;;;18.02;9.93;;;;;;;;;;4971149;28;20058;-74
2021/12/19 07:29:08;;;;;;;19.63;9.55;;;;;;;;;;4970684;28;20031;-73
2021/12/19 07:31:37;;;;;;;17.67;9.35;;;;;;;;;;4971127;28;20126;-74
2021/12/19 07:34:04;;;;;;;17.77;9.50;;;;;;;;;;4970783;28;20489;-74
2021/12/19 07:36:37;;;;;;;20.92;10.40;;;;;;;;;;4971706;28;20057;-74
2021/12/19 07:39:09;;;;;;;22.33;13.13;;;;;;;;;;4975362;28;20115;-74
2021/12/19 07:41:34;;;;;;;20.20;11.23;;;;;;;;;;4975678;28;20042;-74
2021/12/19 07:44:00;;;;;;;20.55;11.05;;;;;;;;;;4974837;28;20122;-74
2021/12/19 07:46:26;;;;;;;20.75;10.90;;;;;;;;;;4974905;28;20043;-74
2021/12/19 07:48:52;;;;;;;22.60;11.40;;;;;;;;;;4972810;28;20461;-73
2021/12/19 07:51:18;;;;;;;23.30;11.60;;;;;;;;;;4973265;28;20070;-68
2021/12/19 07:53:44;;;;;;;21.48;11.45;;;;;;;;;;4973729;28;20130;-69
2021/12/19 07:56:10;;;;;;;23.33;11.27;;;;;;;;;;4973741;28;20441;-69
2021/12/19 07:58:36;;;;;;;27.05;12.13;;;;;;;;;;4973930;28;20066;-74
2021/12/19 08:01:02;;;;;;;24.02;12.55;;;;;;;;;;4973643;28;20034;-75
2021/12/19 08:03:28;;;;;;;24.85;12.63;;;;;;;;;;4971187;28;20030;-75
2021/12/19 08:05:54;;;;;;;23.33;11.27;;;;;;;;;;4974367;28;20038;-74
2021/12/19 08:08:27;;;;;;;25.75;12.80;;;;;;;;;;4972555;28;20030;-73
2021/12/19 08:13:39;;;;;;;21.70;10.93;;;;;;;;;;4972418;28;20043;-74
2021/12/19 08:16:05;;;;;;;22.52;11.88;;;;;;;;;;4974175;28;20034;-74
2021/12/19 08:18:31;;;;;;;23.92;12.45;;;;;;;;;;4974377;28;20038;-74
2021/12/19 08:20:57;;;;;;;23.25;12.05;;;;;;;;;;4974538;28;20441;-73
2021/12/19 08:23:22;;;;;;;22.98;11.40;;;;;;;;;;4973556;28;20485;-74
2021/12/19 08:25:48;;;;;;;22.13;11.52;;;;;;;;;;4973544;28;20090;-75
2021/12/19 08:28:17;;;;;;;28.05;12.18;;;;;;;;;;4973370;28;20085;-74
2021/12/19 08:30:43;;;;;;;25.52;12.38;;;;;;;;;;4972951;28;20620;-74
2021/12/19 08:33:09;;;;;;;30.63;13.30;;;;;;;;;;4972564;28;20046;-74
2021/12/19 08:35:34;;;;;;;26.15;11.90;;;;;;;;;;4972070;28;20118;-74
2021/12/19 08:38:00;;;;;;;23.95;11.98;;;;;;;;;;4972748;28;20082;-75
2021/12/19 08:40:28;;;;;;;22.45;12.10;;;;;;;;;;4987480;28;20066;-74
2021/12/19 08:42:54;;;;;;;28.05;13.20;;;;;;;;;;4972139;28;20046;-75
2021/12/19 08:45:21;;;;;;;25.55;14.20;;;;;;;;;;4954961;28;20050;-74
2021/12/19 08:47:48;;;;;;;29.40;15.85;;;;;;;;;;4972687;28;20031;-73
2021/12/19 08:50:15;;;;;;;27.38;15.27;;;;;;;;;;4972832;28;20039;-74
2021/12/19 08:52:42;;;;;;;29.92;13.93;;;;;;;;;;4973269;28;20043;-73
2021/12/19 08:55:09;;;;;;;28.33;13.55;;;;;;;;;;4973610;28;20051;-74
2021/12/19 08:57:35;;;;;;;30.70;16.15;;;;;;;;;;4973662;28;20043;-74
2021/12/19 09:00:05;;;;;;;26.30;13.85;;;;;;;;;;4974209;28;20643;-74
2021/12/19 09:02:31;;;;;;;27.30;14.32;;;;;;;;;;4973734;28;20504;-74
2021/12/19 09:04:57;;;;;;;27.63;12.93;;;;;;;;;;4973439;28;20074;-73
2021/12/19 09:07:23;;;;;;;30.83;15.40;;;;;;;;;;4973820;28;20474;-74
2021/12/19 09:09:48;;;;;;;30.40;16.27;;;;;;;;;;4973634;28;20059;-74
2021/12/19 09:12:15;;;;;;;31.52;14.02;;;;;;;;;;4973202;28;20070;-74
2021/12/19 09:14:41;;;;;;;26.27;13.45;;;;;;;;;;4973264;28;20043;-74
2021/12/19 09:17:07;;;;;;;25.15;12.38;;;;;;;;;;4973192;28;20555;-73
2021/12/19 09:19:33;;;;;;;25.88;13.10;;;;;;;;;;4973397;28;20102;-73
2021/12/19 09:22:01;;;;;;;24.23;12.55;;;;;;;;;;4973209;28;20402;-73
2021/12/19 09:24:27;;;;;;;26.33;12.55;;;;;;;;;;4972972;28;20038;-74
2021/12/19 09:26:53;;;;;;;26.67;13.00;;;;;;;;;;4972859;28;20082;-73
2021/12/19 09:29:19;;;;;;;45.38;23.45;;;;;;;;;;4973363;28;20142;-73
2021/12/19 09:31:48;;;;;;;24.80;12.07;;;;;;;;;;4972739;28;20091;-74
2021/12/19 09:34:14;;;;;;;27.90;14.63;;;;;;;;;;4973263;28;20401;-73
2021/12/19 09:36:39;;;;;;;25.00;11.77;;;;;;;;;;4973080;28;20046;-74
2021/12/19 09:39:06;;;;;;;20.85;9.70;;;;;;;;;;4973066;28;20081;-74
2021/12/19 09:41:36;;;;;;;21.70;11.55;;;;;;;;;;4972929;28;20049;-74
2021/12/19 09:44:06;;;;;;;21.77;11.25;;;;;;;;;;4972688;28;20042;-74
2021/12/19 09:46:36;;;;;;;21.27;10.90;;;;;;;;;;4972964;28;20050;-74
2021/12/19 09:49:05;;;;;;;18.08;10.23;;;;;;;;;;4973186;28;20034;-74
2021/12/19 09:51:31;;;;;;;20.45;10.40;;;;;;;;;;4973104;28;20043;-74
2021/12/19 09:53:57;;;;;;;19.00;10.38;;;;;;;;;;4971815;28;20062;-74
2021/12/19 09:56:23;;;;;;;20.40;10.18;;;;;;;;;;4972785;28;20042;-74
2021/12/19 09:58:50;;;;;;;19.70;10.45;;;;;;;;;;4971122;28;20042;-75
2021/12/19 10:01:19;;;;;;;19.75;10.15;;;;;;;;;;4973761;28;20042;-74
2021/12/19 10:03:45;;;;;;;20.40;10.82;;;;;;;;;;4964497;28;20141;-74
2021/12/19 10:06:25;;;;;;;20.73;10.52;;;;;;;;;;4984043;28;20039;-74
2021/12/19 10:09:26;;;;;;;26.80;15.20;;;;;;;;;;4953699;28;20478;-74
2021/12/19 10:14:33;;;;;;;21.20;11.07;;;;;;;;;;4960902;28;20102;-74
2021/12/19 10:17:01;;;;;;;19.48;10.35;;;;;;;;;;4951896;28;20050;-74
2021/12/19 10:19:48;;;;;;;18.48;9.93;;;;;;;;;;4953000;28;20042;-74
2021/12/19 10:22:38;;;;;;;18.58;10.52;;;;;;;;;;4951223;28;20043;-74
2021/12/19 10:25:07;;;;;;;22.55;10.45;;;;;;;;;;4951346;28;20047;-74
2021/12/19 10:27:48;;;;;;;17.63;9.20;;;;;;;;;;4952746;29;20031;-73
2021/12/19 10:30:19;;;;;;;16.42;9.30;;;;;;;;;;4953113;28;20478;-75
2021/12/19 10:32:52;;;;;;;;;;;;;;;;;;4953172;28;20466;-73
2021/12/19 10:35:21;;;;;;;18.98;9.20;;;;;;;;;;4953105;28;19914;-75
2021/12/19 10:37:48;;;;;;;18.17;9.65;;;;;;;;;;4964014;28;20031;-74
2021/12/19 10:40:14;;;;;;;17.13;9.95;;;;;;;;;;4969810;28;20381;-75
2021/12/19 10:42:55;;;;;;;20.33;10.70;;;;;;;;;;4967053;28;20530;-73
2021/12/19 10:45:30;;;;;;;18.60;10.65;;;;;;;;;;4920909;28;20471;-73
2021/12/19 10:48:17;;;;;;;18.25;9.38;;;;;;;;;;4967563;28;20034;-75
2021/12/19 10:50:49;;;;;;;18.55;10.15;;;;;;;;;;4969501;28;20050;-74
2021/12/19 10:53:17;;;;;;;19.55;9.73;;;;;;;;;;4970032;28;20038;-75
2021/12/19 10:55:48;;;;;;;17.90;9.18;;;;;;;;;;4960055;28;20047;-76
2021/12/19 10:58:19;;;;;;;;;;;;;;;;;;4970582;28;20509;-75
2021/12/19 11:01:18;;;;;;;25.35;12.98;;;;;;;;;;4970964;28;19925;-74
2021/12/19 11:04:10;;;;;;;48.15;27.00;;;;;;;;;;4960271;28;20047;-76
2021/12/19 11:06:47;;;;;;;23.83;12.40;;;;;;;;;;4961107;28;20111;-75
2021/12/19 11:09:18;;;;;;;16.98;9.18;;;;;;;;;;4970310;28;20034;-77
2021/12/19 11:12:07;;;;;;;17.48;9.57;;;;;;;;;;4971029;28;20489;-76
2021/12/19 11:14:47;;;;;;;16.98;9.65;;;;;;;;;;4973607;28;20045;-76
2021/12/19 11:17:20;;;;;;;17.73;8.90;;;;;;;;;;4973863;28;20065;-75
2021/12/19 11:19:51;;;;;;;16.75;9.20;;;;;;;;;;4974500;28;20497;-76
2021/12/19 11:22:23;;;;;;;;;;;;;;;;;;4975123;28;20042;-75
2021/12/19 11:24:52;;;;;;;15.05;8.25;;;;;;;;;;4989076;28;19917;-76
2021/12/19 11:27:18;;;;;;;17.33;8.57;;;;;;;;;;4974397;28;20046;-75
2021/12/19 11:29:45;;;;;;;17.67;9.32;;;;;;;;;;4973604;28;20083;-75
2021/12/19 11:32:18;;;;;;;16.70;8.20;;;;;;;;;;4974414;28;20046;-75
2021/12/19 11:34:56;;;;;;;17.88;9.48;;;;;;;;;;4973727;28;20027;-75
2021/12/19 11:37:32;;;;;;;20.27;9.43;;;;;;;;;;4974356;28;20047;-74
2021/12/19 11:39:59;;;;;;;16.88;9.10;;;;;;;;;;4973581;28;20050;-75
2021/12/19 11:42:32;;;;;;;17.30;9.30;;;;;;;;;;4973606;28;20042;-74
2021/12/19 11:47:41;;;;;;;17.75;9.43;;;;;;;;;;4974730;28;20026;-74
2021/12/19 11:50:21;;;;;;;18.27;9.32;;;;;;;;;;4973634;28;20038;-74
2021/12/19 11:52:48;;;;;;;51.58;24.40;;;;;;;;;;4955454;28;20058;-75
2021/12/19 11:55:14;;;;;;;21.05;9.73;;;;;;;;;;4956013;28;20051;-76
2021/12/19 11:57:41;;;;;;;19.23;9.65;;;;;;;;;;4973084;28;20051;-75
2021/12/19 12:00:29;;;;;;;16.05;9.43;;;;;;;;;;4978837;28;20042;-75
2021/12/19 12:03:21;;;;;;;17.98;8.88;;;;;;;;;;4989961;28;20042;-74
2021/12/19 12:05:52;;;;;;;17.85;9.18;;;;;;;;;;4975828;28;20046;-74
2021/12/19 12:08:19;;;;;;;;;;;;;;;;;;4975202;28;20042;-74
2021/12/19 12:10:48;;;;;;;19.40;9.00;;;;;;;;;;4955652;28;19918;-74
2021/12/19 12:13:20;;;;;;;19.92;9.88;;;;;;;;;;4955335;28;20035;-73
2021/12/19 12:15:46;;;;;;;20.98;10.60;;;;;;;;;;4955371;28;20512;-73
2021/12/19 12:18:35;;;;;;;20.13;10.25;;;;;;;;;;4968930;28;20130;-76
2021/12/19 12:21:30;;;;;;;20.33;10.18;;;;;;;;;;4974227;28;20043;-74
2021/12/19 12:24:15;;;;;;;38.45;21.98;;;;;;;;;;4971065;28;20039;-76
2021/12/19 12:26:49;;;;;;;37.28;18.88;;;;;;;;;;4968903;28;20050;-73
2021/12/19 12:29:16;;;;;;;19.58;10.43;;;;;;;;;;4966710;28;20381;-75
2021/12/19 12:31:44;;;;;;;20.48;10.50;;;;;;;;;;4972795;28;20049;-74
2021/12/19 12:34:13;;;;;;;19.55;10.05;;;;;;;;;;4971759;28;20035;-75
2021/12/19 12:36:39;;;;;;;18.48;9.77;;;;;;;;;;4970862;28;20042;-74
2021/12/19 12:39:15;;;;;;;22.30;10.32;;;;;;;;;;4972238;28;20042;-74
2021/12/19 12:41:58;;;;;;;20.73;10.40;;;;;;;;;;4972476;28;20042;-76
2021/12/19 12:44:25;;;;;;;18.83;9.38;;;;;;;;;;4980107;28;20036;-76
2021/12/19 12:46:51;;;;;;;17.15;9.70;;;;;;;;;;4979063;28;20042;-77
2021/12/19 12:49:24;;;;;;;18.13;9.38;;;;;;;;;;4976285;28;20062;-76
2021/12/19 12:51:56;;;;;;;21.95;10.40;;;;;;;;;;4978345;28;20049;-78
2021/12/19 12:54:26;;;;;;;20.70;9.88;;;;;;;;;;4974679;28;20042;-79
2021/12/19 12:56:54;;;;;;;20.98;10.02;;;;;;;;;;4974498;28;20073;-80
2021/12/19 12:59:32;;;;;;;30.55;17.35;;;;;;;;;;4974092;28;20045;-82
2021/12/19 13:02:29;;;;;;;26.23;13.82;;;;;;;;;;4974837;28;20027;-82
2021/12/19 13:04:59;;;;;;;19.13;10.50;;;;;;;;;;4973224;28;20034;-81
2021/12/19 13:07:26;;;;;;;20.10;10.57;;;;;;;;;;4975760;28;20042;-82
2021/12/19 13:09:56;;;;;;;20.20;10.57;;;;;;;;;;4981962;28;20031;-81
2021/12/19 13:12:27;;;;;;;19.63;10.23;;;;;;;;;;4975912;28;20042;-83
2021/12/19 13:14:54;;;;;;;21.80;9.95;;;;;;;;;;4973071;28;20042;-75
2021/12/19 13:17:26;;;;;;;15.95;8.63;;;;;;;;;;4974529;28;20429;-76
2021/12/19 13:19:57;;;;;;;19.45;10.38;;;;;;;;;;4973831;28;20497;-76
2021/12/19 13:22:47;;;;;;;21.42;9.93;;;;;;;;;;4973447;28;20053;-77
2021/12/19 13:25:17;;;;;;;17.48;9.18;;;;;;;;;;4974863;28;20051;-80
2021/12/19 13:28:00;;;;;;;19.52;9.85;;;;;;;;;;4971062;28;20050;-79
2021/12/19 13:30:37;;;;;;;19.02;9.60;;;;;;;;;;4969432;28;20073;-77
2021/12/19 13:33:14;;;;;;;19.02;9.98;;;;;;;;;;4973215;28;20503;-78
2021/12/19 13:35:48;;;;;;;18.98;10.02;;;;;;;;;;4962240;28;20215;-77
2021/12/19 13:38:19;;;;;;;20.45;10.23;;;;;;;;;;4973497;28;20543;-78
2021/12/19 13:40:58;;;;;;;20.45;10.57;;;;;;;;;;4993247;28;20053;-79
2021/12/19 13:43:31;;;;;;;19.30;9.68;;;;;;;;;;4984312;28;20041;-79
2021/12/19 13:46:01;;;;;;;21.67;9.82;;;;;;;;;;4986400;28;20030;-79
2021/12/19 13:48:48;;;;;;;23.75;11.32;;;;;;;;;;4991299;28;20023;-79
2021/12/19 13:51:17;;;;;;;20.10;10.63;;;;;;;;;;4989936;28;20039;-80
2021/12/19 13:53:52;;;;;;;22.13;11.65;;;;;;;;;;4990811;28;20473;-79
2021/12/19 13:56:33;;;;;;;23.83;12.90;;;;;;;;;;4986080;28;20034;-78
2021/12/19 13:59:06;;;;;;;37.53;21.40;;;;;;;;;;4975267;28;20031;-79
2021/12/19 14:01:39;;;;;;;23.17;12.90;;;;;;;;;;4994989;28;20033;-78
2021/12/19 14:04:14;;;;;;;19.77;11.57;;;;;;;;;;4994096;28;20022;-81
2021/12/19 14:06:40;;;;;;;21.45;11.70;;;;;;;;;;4996077;28;20069;-77
2021/12/19 14:09:11;;;;;;;19.00;11.13;;;;;;;;;;4990643;28;20043;-81
2021/12/19 14:11:44;;;;;;;;;;;;;;;;;;4992719;28;20035;-79
2021/12/19 14:14:26;;;;;;;16.75;9.98;;;;;;;;;;4993696;28;19906;-79
2021/12/19 14:17:28;;;;;;;14.57;8.77;;;;;;;;;;4997176;28;20027;-80
2021/12/19 14:19:57;;;;;;;13.32;7.45;;;;;;;;;;4998722;28;20042;-80
2021/12/19 14:22:24;;;;;;;12.52;7.40;;;;;;;;;;4996522;28;20046;-79
2021/12/19 14:24:58;;;;;;;12.68;7.70;;;;;;;;;;4980486;28;20039;-79
2021/12/19 14:27:25;;;;;;;11.45;6.60;;;;;;;;;;4974825;28;20035;-78
2021/12/19 14:29:58;;;;;;;13.05;6.88;;;;;;;;;;4975916;28;20053;-77
2021/12/19 14:32:32;;;;;;;12.73;7.00;;;;;;;;;;4975985;28;20035;-77
2021/12/19 14:35:01;;;;;;;12.45;6.90;;;;;;;;;;4973953;28;20058;-79
2021/12/19 14:37:36;;;;;;;10.52;6.47;;;;;;;;;;4975384;28;20504;-76
2021/12/19 14:40:14;;;;;;;11.43;6.70;;;;;;;;;;4975648;28;20046;-78
2021/12/19 14:42:48;;;;;;;24.02;15.45;;;;;;;;;;4974944;28;20066;-79
2021/12/19 14:45:42;;;;;;;45.03;28.23;;;;;;;;;;4976772;28;20053;-80
2021/12/19 14:48:15;;;;;;;33.83;20.02;;;;;;;;;;4978878;28;20107;-78
2021/12/19 14:50:58;;;;;;;11.68;6.82;;;;;;;;;;4976615;28;20042;-78
2021/12/19 14:53:37;;;;;;;13.57;7.32;;;;;;;;;;4975526;28;20043;-79
2021/12/19 14:56:10;;;;;;;11.45;7.13;;;;;;;;;;4978558;28;20050;-78
2021/12/19 14:58:42;;;;;;;13.18;8.27;;;;;;;;;;4976348;28;20039;-77
2021/12/19 15:01:14;;;;;;;13.50;8.13;;;;;;;;;;4975166;28;20035;-78
2021/12/19 15:03:51;;;;;;;12.32;6.93;;;;;;;;;;4974560;28;20031;-78
2021/12/19 15:06:25;;;;;;;12.20;6.53;;;;;;;;;;4977123;28;20034;-78
2021/12/19 15:08:54;;;;;;;10.43;6.50;;;;;;;;;;4972594;28;20042;-77
2021/12/19 15:11:20;;;;;;;15.25;7.70;;;;;;;;;;4975592;28;20039;-76
2021/12/19 15:13:47;;;;;;;11.27;6.65;;;;;;;;;;4972094;28;20670;-77
2021/12/19 15:16:13;;;;;;;11.57;6.70;;;;;;;;;;4972376;28;20051;-75
2021/12/19 15:18:41;;;;;;;10.68;6.10;;;;;;;;;;4973144;28;20043;-78
2021/12/19 15:21:06;;;;;;;9.95;5.90;;;;;;;;;;4970715;28;20047;-77
2021/12/19 15:23:35;;;;;;;10.98;6.53;;;;;;;;;;4968743;28;20057;-77
2021/12/19 15:26:03;;;;;;;26.58;17.05;;;;;;;;;;4970918;28;20050;-77
2021/12/19 15:28:29;;;;;;;35.72;18.13;;;;;;;;;;4969528;28;20039;-78
2021/12/19 15:30:58;;;;;;;13.40;8.77;;;;;;;;;;4969500;28;20058;-77
2021/12/19 15:33:26;;;;;;;9.25;6.20;;;;;;;;;;4971033;28;20054;-79
2021/12/19 15:35:52;;;;;;;10.73;6.07;;;;;;;;;;4971842;28;20046;-78
2021/12/19 15:38:18;;;;;;;9.85;5.80;;;;;;;;;;4972319;28;20477;-76
2021/12/19 15:40:44;;;;;;;11.95;6.97;;;;;;;;;;4969904;28;20034;-78
2021/12/19 15:43:11;;;;;;;8.32;5.30;;;;;;;;;;4977846;28;20042;-76
2021/12/19 15:45:37;;;;;;;9.10;6.07;;;;;;;;;;4974413;28;20293;-77
2021/12/19 15:48:05;;;;;;;9.40;6.32;;;;;;;;;;4974140;28;20039;-77
2021/12/19 15:50:32;;;;;;;9.15;5.60;;;;;;;;;;4973565;28;20428;-77
2021/12/19 15:52:58;;;;;;;8.38;5.50;;;;;;;;;;4971573;28;20042;-77
2021/12/19 15:55:24;;;;;;;9.32;6.03;;;;;;;;;;4974422;28;20043;-78